Time;durP1;ratioP1;P1;durP2;ratioP2;P2;SDS_P1;SDS_P2;PMS_P1;PMS_P2;Temp;Humidity;BMP_temperature;BMP_pressure;BME280_temperature;BME280_humidity;BME280_pressure;Samples;Min_cycle;Max_cycle;Signal;HPM_P1;HPM_P2
2023/04/06 00:02:17;;;;;;;3.85;2.08;;;;;;;1.32;93.45;101146.38;5176508;28;20061;-71
2023/04/06 00:04:48;;;;;;;5.88;2.42;;;;;;;1.32;94.73;101143.81;5182730;28;20026;-70
2023/04/06 00:07:18;;;;;;;4.88;1.92;;;;;;;1.37;94.08;101143.03;5154203;28;20033;-70
2023/04/06 00:09:48;;;;;;;4.45;2.00;;;;;;;1.38;93.79;101139.59;5179338;28;20103;-72
2023/04/06 00:12:19;;;;;;;4.03;2.00;;;;;;;1.47;91.15;101147.44;5170624;28;20484;-72
2023/04/06 00:14:50;;;;;;;4.68;1.75;;;;;;;1.31;92.48;101144.66;5176274;28;20184;-73
2023/04/06 00:17:20;;;;;;;5.68;1.95;;;;;;;1.42;92.04;101140.50;5172727;28;20037;-72
2023/04/06 00:19:51;;;;;;;5.32;2.22;;;;;;;1.55;90.32;101134.63;5153288;28;20034;-72
2023/04/06 00:22:21;;;;;;;3.88;1.98;;;;;;;1.39;90.41;101136.16;5155813;28;20033;-72
2023/04/06 00:24:51;;;;;;;5.57;2.13;;;;;;;1.37;92.64;101139.59;5152726;28;20542;-72
2023/04/06 00:27:22;;;;;;;4.28;2.25;;;;;;;1.39;92.21;101132.75;5152084;28;20484;-72
2023/04/06 00:29:52;;;;;;;3.85;2.05;;;;;;;1.46;90.37;101124.22;5179104;28;20025;-73
2023/04/06 00:32:23;;;;;;;4.35;2.10;;;;;;;1.43;90.33;101134.50;5175963;28;20033;-71
2023/04/06 00:34:53;;;;;;;5.18;1.90;;;;;;;1.34;92.51;101126.66;5174737;28;20030;-71
2023/04/06 00:37:23;;;;;;;5.00;2.08;;;;;;;1.25;92.03;101134.31;5195187;23;20048;-71
2023/04/06 00:39:54;;;;;;;3.90;1.92;;;;;;;1.14;92.63;101129.06;5177926;28;20044;-72
2023/04/06 00:42:27;;;;;;;5.68;2.00;;;;;;;1.23;93.47;101134.28;5178878;28;20029;-71
2023/04/06 00:44:59;;;;;;;5.00;2.13;;;;;;;1.17;93.41;101128.22;5176348;28;20149;-71
2023/04/06 00:47:30;;;;;;;5.97;2.15;;;;;;;1.11;93.35;101126.47;5181510;28;20032;-71
2023/04/06 00:50:00;;;;;;;3.67;2.05;;;;;;;0.99;94.56;101126.31;5185681;28;20034;-72
2023/04/06 00:52:30;;;;;;;4.32;2.00;;;;;;;1.04;94.33;101123.78;5168359;28;20030;-71
2023/04/06 00:55:02;;;;;;;4.75;2.30;;;;;;;1.11;92.96;101117.84;5174169;28;20377;-71
2023/04/06 00:57:32;;;;;;;9.23;2.35;;;;;;;1.04;94.04;101119.50;5180109;28;20573;-70
2023/04/06 01:00:03;;;;;;;5.47;2.13;;;;;;;0.89;94.81;101114.16;5175917;28;20118;-71
2023/04/06 01:02:34;;;;;;;4.55;2.30;;;;;;;0.99;95.82;101110.88;5177619;28;20038;-71
2023/04/06 01:05:05;;;;;;;5.20;2.40;;;;;;;1.03;93.28;101111.78;5179117;28;20447;-71
2023/04/06 01:07:35;;;;;;;5.68;2.50;;;;;;;0.85;93.85;101120.13;5182299;28;20032;-71
2023/04/06 01:10:06;;;;;;;7.18;2.70;;;;;;;0.79;94.54;101109.78;5178630;28;20487;-70
2023/04/06 01:12:38;;;;;;;6.68;2.13;;;;;;;0.90;95.35;101105.59;5175303;28;20115;-71
2023/04/06 01:15:10;;;;;;;4.03;2.28;;;;;;;0.84;93.73;101102.09;5175374;28;20030;-69
2023/04/06 01:17:41;;;;;;;5.10;2.38;;;;;;;0.83;94.03;101101.25;5173429;28;20034;-71
2023/04/06 01:20:11;;;;;;;4.63;2.25;;;;;;;0.73;94.17;101107.13;5179114;28;20368;-71
2023/04/06 01:22:42;;;;;;;6.70;2.83;;;;;;;0.82;94.96;101107.25;5178743;28;20026;-71
2023/04/06 01:25:12;;;;;;;6.90;2.85;;;;;;;0.99;94.21;101105.72;5178747;28;20029;-71
2023/04/06 01:27:43;;;;;;;5.90;2.20;;;;;;;0.89;92.80;101106.47;5181206;28;20116;-71
2023/04/06 01:30:13;;;;;;;5.88;2.40;;;;;;;0.89;93.47;101103.88;5182219;28;20407;-71
2023/04/06 01:32:44;;;;;;;6.22;2.38;;;;;;;1.06;91.32;101104.94;5160962;28;20036;-71
2023/04/06 01:35:15;;;;;;;5.95;2.10;;;;;;;0.86;91.17;101106.44;5181161;28;20030;-70
2023/04/06 01:37:45;;;;;;;5.28;2.15;;;;;;;0.72;93.21;101095.09;5180250;28;20080;-70
2023/04/06 01:40:15;;;;;;;7.10;2.38;;;;;;;0.84;91.78;101108.13;5179003;28;20030;-70
2023/04/06 01:42:46;;;;;;;5.22;2.45;;;;;;;0.68;94.05;101101.06;5180491;28;20483;-69
2023/04/06 01:45:16;;;;;;;4.78;2.00;;;;;;;0.71;94.35;101093.38;5182971;28;20045;-70
2023/04/06 01:47:47;;;;;;;6.32;2.60;;;;;;;0.93;92.86;101097.06;5180415;28;20030;-70
2023/04/06 01:50:17;;;;;;;3.90;2.20;;;;;;;0.86;92.72;101103.00;5178895;28;20025;-69
2023/04/06 01:52:47;;;;;;;5.15;2.42;;;;;;;0.93;92.23;101104.78;5158616;28;20048;-70
2023/04/06 01:55:18;;;;;;;7.40;2.97;;;;;;;0.76;91.27;101102.00;5165948;28;20488;-70
2023/04/06 01:57:48;;;;;;;6.25;2.47;;;;;;;0.73;92.60;101090.84;5162192;28;20379;-70
2023/04/06 02:00:19;;;;;;;4.45;2.33;;;;;;;0.75;92.99;101095.13;5179196;28;20480;-71
2023/04/06 02:02:49;;;;;;;7.65;2.88;;;;;;;0.84;92.33;101095.25;5185209;28;20017;-69
2023/04/06 02:05:20;;;;;;;5.78;2.22;;;;;;;0.64;91.96;101090.72;5165758;28;20573;-70
2023/04/06 02:07:51;;;;;;;4.15;2.10;;;;;;;0.69;93.52;101095.06;5176716;28;20053;-71
2023/04/06 02:10:22;;;;;;;6.95;2.85;;;;;;;0.70;93.90;101086.50;5181500;28;20038;-70
2023/04/06 02:12:52;;;;;;;5.18;2.55;;;;;;;1.01;91.57;101096.31;5181058;28;20029;-72
2023/04/06 02:15:23;;;;;;;6.50;2.40;;;;;;;1.04;89.80;101083.47;5177048;28;20026;-72
2023/04/06 02:17:53;;;;;;;6.75;2.40;;;;;;;1.10;89.80;101088.66;5177420;28;20497;-71
2023/04/06 02:20:24;;;;;;;6.28;2.83;;;;;;;1.04;88.67;101078.31;5161572;28;20057;-70
2023/04/06 02:22:56;;;;;;;5.28;2.78;;;;;;;1.01;89.20;101093.75;5177694;28;20034;-70
2023/04/06 02:25:27;;;;;;;6.38;2.88;;;;;;;0.86;90.27;101082.44;5180119;28;20037;-69
2023/04/06 02:27:58;;;;;;;6.65;2.60;;;;;;;0.84;91.25;101092.69;5177124;28;20050;-70
2023/04/06 02:30:29;;;;;;;5.55;2.13;;;;;;;0.73;91.36;101096.81;5178560;28;20034;-70
2023/04/06 02:33:00;;;;;;;8.70;2.78;;;;;;;0.65;92.67;101090.75;5179913;28;20388;-70
2023/04/06 02:35:31;;;;;;;5.05;2.38;;;;;;;0.62;92.57;101092.41;5174099;28;20455;-70
2023/04/06 02:38:01;;;;;;;7.03;2.88;;;;;;;0.57;92.62;101084.63;5179336;28;20318;-70
2023/04/06 02:40:32;;;;;;;5.28;2.75;;;;;;;0.37;92.45;101077.53;5177287;28;20026;-69
2023/04/06 02:43:02;;;;;;;9.55;3.08;;;;;;;0.43;92.28;101075.91;5162273;28;20487;-70
2023/04/06 02:45:33;;;;;;;5.95;2.70;;;;;;;0.40;92.41;101075.00;5179262;28;20487;-71
2023/04/06 02:48:03;;;;;;;8.18;3.03;;;;;;;0.59;92.34;101079.53;5178269;28;20442;-69
2023/04/06 02:50:34;;;;;;;8.43;2.92;;;;;;;0.55;91.37;101081.19;5177876;28;20034;-70
2023/04/06 02:53:04;;;;;;;7.28;2.92;;;;;;;0.42;92.60;101076.72;5176066;28;20293;-69
2023/04/06 02:55:34;;;;;;;5.38;2.67;;;;;;;0.45;92.61;101079.34;5175157;28;20100;-69
2023/04/06 02:58:05;;;;;;;8.00;3.08;;;;;;;0.46;92.20;101077.63;5178477;28;20048;-69
2023/04/06 03:00:37;;;;;;;8.23;3.47;;;;;;;0.48;92.65;101079.38;5182967;28;20053;-71
2023/04/06 03:03:07;;;;;;;6.28;3.22;;;;;;;0.65;91.45;101072.75;5176812;28;20024;-70
2023/04/06 03:05:38;;;;;;;5.80;3.03;;;;;;;0.57;91.37;101083.78;5180805;28;20042;-72
2023/04/06 03:08:08;;;;;;;5.20;2.85;;;;;;;0.47;91.45;101072.53;5175770;28;20030;-70
2023/04/06 03:10:38;;;;;;;5.20;2.70;;;;;;;0.44;92.14;101071.63;5179513;28;20026;-70
2023/04/06 03:13:09;;;;;;;8.10;3.20;;;;;;;0.41;91.50;101077.56;5157880;28;20045;-70
2023/04/06 03:15:39;;;;;;;5.50;3.22;;;;;;;0.39;92.65;101078.41;5180199;28;20029;-70
2023/04/06 03:18:10;;;;;;;8.35;3.20;;;;;;;0.50;92.29;101072.56;5175283;28;20030;-70
2023/04/06 03:20:40;;;;;;;6.53;3.42;;;;;;;0.32;91.58;101074.88;5161948;28;20049;-71
2023/04/06 03:23:11;;;;;;;9.35;3.55;;;;;;;0.30;92.68;101074.00;5158093;28;20029;-70
2023/04/06 03:25:41;;;;;;;9.30;3.53;;;;;;;0.34;93.83;101074.88;5176005;28;20557;-70
2023/04/06 03:28:11;;;;;;;8.25;3.35;;;;;;;0.43;91.30;101080.16;5176171;28;20030;-71
2023/04/06 03:30:42;;;;;;;6.05;3.28;;;;;;;0.54;90.82;101079.44;5176978;28;20053;-71
2023/04/06 03:33:12;;;;;;;7.97;2.90;;;;;;;0.59;90.68;101074.38;5179912;28;20025;-70
2023/04/06 03:35:42;;;;;;;8.20;3.45;;;;;;;0.53;91.21;101079.44;5176342;28;20032;-71
2023/04/06 03:38:13;;;;;;;7.15;3.30;;;;;;;0.30;90.75;101074.00;5176793;28;20033;-70
2023/04/06 03:40:43;;;;;;;6.78;3.00;;;;;;;0.10;92.10;101080.59;5180284;28;20026;-70
2023/04/06 03:43:13;;;;;;;7.13;3.20;;;;;;;0.12;92.48;101073.75;5174529;28;20033;-70
2023/04/06 03:45:44;;;;;;;7.68;3.20;;;;;;;0.04;93.72;101080.47;5178966;28;20029;-70
2023/04/06 03:48:14;;;;;;;6.75;3.28;;;;;;;0.26;93.41;101076.50;5175822;28;20030;-71
2023/04/06 03:50:44;;;;;;;7.32;3.47;;;;;;;0.26;91.54;101077.38;5179655;28;20022;-70
2023/04/06 03:53:15;;;;;;;6.78;2.90;;;;;;;0.08;92.42;101079.66;5157011;28;20026;-71
2023/04/06 03:55:45;;;;;;;6.25;3.10;;;;;;;-0.10;93.69;101082.81;5175730;28;20057;-70
2023/04/06 03:58:16;;;;;;;5.85;3.08;;;;;;;0.05;93.67;101084.78;5159840;28;20030;-70
2023/04/06 04:00:46;;;;;;;7.50;3.70;;;;;;;0.05;92.34;101079.63;5178437;28;20527;-69
2023/04/06 04:03:16;;;;;;;7.97;3.20;;;;;;;0.07;93.03;101089.94;5173930;28;20129;-71
2023/04/06 04:05:47;;;;;;;7.30;3.95;;;;;;;0.22;92.83;101085.88;5176197;28;20024;-70
2023/04/06 04:08:17;;;;;;;7.00;3.28;;;;;;;0.00;92.84;101089.00;5177652;28;20116;-71
2023/04/06 04:10:47;;;;;;;7.75;3.22;;;;;;;0.03;93.41;101083.88;5177688;28;20029;-70
2023/04/06 04:13:18;;;;;;;5.45;3.28;;;;;;;-0.03;92.73;101088.06;5176995;28;20073;-71
2023/04/06 04:15:48;;;;;;;8.98;3.40;;;;;;;0.03;92.55;101083.88;5178651;28;20407;-70
2023/04/06 04:18:19;;;;;;;6.53;3.70;;;;;;;0.02;93.04;101091.59;5174624;28;20030;-71
2023/04/06 04:20:49;;;;;;;6.60;3.50;;;;;;;0.04;93.01;101095.03;5179017;28;20021;-71
2023/04/06 04:23:20;;;;;;;7.78;4.20;;;;;;;-0.17;92.02;101092.16;5175631;28;20034;-70
2023/04/06 04:25:50;;;;;;;8.85;3.70;;;;;;;-0.19;94.35;101091.25;5160440;28;20029;-71
2023/04/06 04:28:21;;;;;;;9.48;3.80;;;;;;;-0.03;93.59;101093.22;5174991;28;20033;-71
2023/04/06 04:30:51;;;;;;;7.45;3.92;;;;;;;-0.03;92.59;101097.50;5178656;28;20498;-70
2023/04/06 04:33:22;;;;;;;7.88;3.72;;;;;;;-0.10;93.77;101090.53;5173604;28;20091;-72
2023/04/06 04:35:52;;;;;;;8.45;4.20;;;;;;;-0.19;94.07;101092.97;5161350;28;20120;-70
2023/04/06 04:38:23;;;;;;;10.48;3.90;;;;;;;-0.26;94.00;101099.72;5177499;28;20025;-71
2023/04/06 04:40:53;;;;;;;6.95;3.92;;;;;;;-0.01;94.49;101089.84;5177781;28;20094;-69
2023/04/06 04:43:24;;;;;;;7.30;3.85;;;;;;;0.03;93.93;101095.88;5173588;28;20100;-70
2023/04/06 04:45:54;;;;;;;8.75;4.20;;;;;;;-0.10;94.01;101095.66;5176783;28;20029;-69
2023/04/06 04:48:25;;;;;;;6.15;3.90;;;;;;;-0.15;94.76;101092.16;5175493;28;20030;-70
2023/04/06 04:50:55;;;;;;;12.88;4.38;;;;;;;-0.06;94.11;101094.88;5176431;28;20400;-70
2023/04/06 04:53:26;;;;;;;8.38;4.20;;;;;;;-0.11;93.50;101096.50;5168668;28;20036;-71
2023/04/06 04:55:56;;;;;;;9.38;4.60;;;;;;;-0.21;94.90;101104.91;5154327;28;20396;-71
2023/04/06 04:58:26;;;;;;;8.45;4.32;;;;;;;-0.12;94.80;101093.09;5178052;28;20104;-70
2023/04/06 05:00:57;;;;;;;7.40;4.05;;;;;;;0.02;94.24;101097.56;5177992;28;20026;-70
2023/04/06 05:03:27;;;;;;;8.63;4.32;;;;;;;0.08;93.58;101091.66;5178733;28;20033;-71
2023/04/06 05:05:58;;;;;;;8.13;4.40;;;;;;;0.05;94.85;101096.78;5159347;28;20045;-71
2023/04/06 05:08:28;;;;;;;8.70;3.85;;;;;;;-0.09;95.00;101095.69;5173889;28;20104;-72
2023/04/06 05:10:59;;;;;;;10.95;4.47;;;;;;;-0.02;95.27;101095.81;5177028;28;20103;-72
2023/04/06 05:13:30;;;;;;;8.77;4.38;;;;;;;0.16;94.74;101090.94;5180250;28;20029;-71
2023/04/06 05:16:01;;;;;;;6.95;3.85;;;;;;;0.06;94.78;101089.06;5161991;28;20304;-71
2023/04/06 05:18:31;;;;;;;9.70;4.63;;;;;;;-0.01;94.47;101091.53;5179635;28;20036;-71
2023/04/06 05:21:02;;;;;;;9.25;4.40;;;;;;;0.18;94.10;101088.41;5180720;28;20030;-70
2023/04/06 05:23:32;;;;;;;8.10;4.22;;;;;;;0.31;93.83;101093.72;5179803;28;20491;-72
2023/04/06 05:26:03;;;;;;;12.27;4.93;;;;;;;0.41;92.10;101087.84;5180094;28;20040;-71
2023/04/06 05:28:33;;;;;;;7.47;4.55;;;;;;;0.62;91.37;101080.44;5178155;28;20028;-70
2023/04/06 05:31:03;;;;;;;8.88;4.28;;;;;;;0.80;90.68;101083.22;5181369;28;20034;-72
2023/04/06 05:33:34;;;;;;;7.80;4.25;;;;;;;0.82;90.70;101084.09;5179704;28;20032;-71
2023/04/06 05:36:06;;;;;;;7.10;4.20;;;;;;;0.96;91.10;101073.94;5163432;28;20523;-70
2023/04/06 05:38:37;;;;;;;10.55;5.05;;;;;;;1.03;91.24;101079.19;5180650;28;20095;-71
2023/04/06 05:41:07;;;;;;;7.60;4.40;;;;;;;0.97;90.76;101076.56;5180239;28;20530;-71
2023/04/06 05:43:38;;;;;;;7.97;4.60;;;;;;;1.08;90.46;101085.22;5176924;28;20022;-71
2023/04/06 05:46:08;;;;;;;8.07;4.15;;;;;;;1.16;90.91;101075.88;5179011;28;20033;-69
2023/04/06 05:48:38;;;;;;;9.95;4.80;;;;;;;1.18;90.72;101076.75;5172116;28;20088;-70
2023/04/06 05:51:09;;;;;;;7.95;4.75;;;;;;;1.25;90.64;101075.97;5180391;28;20049;-72
2023/04/06 05:53:40;;;;;;;7.75;4.30;;;;;;;1.38;90.62;101080.38;5175316;28;20025;-71
2023/04/06 05:56:11;;;;;;;8.07;4.47;;;;;;;1.52;90.30;101083.94;5179380;28;20079;-71
2023/04/06 05:58:41;;;;;;;8.55;5.00;;;;;;;1.60;90.51;101086.59;5178946;28;20030;-72
2023/04/06 06:01:11;;;;;;;6.72;3.95;;;;;;;1.67;90.02;101083.22;5180238;28;20029;-71
2023/04/06 06:03:42;;;;;;;10.30;4.95;;;;;;;1.67;90.16;101084.09;5180373;28;20037;-72
2023/04/06 06:06:12;;;;;;;10.13;4.95;;;;;;;1.81;90.67;101080.75;5179841;28;20502;-71
2023/04/06 06:08:42;;;;;;;8.30;4.72;;;;;;;1.88;90.80;101079.09;5179299;28;20018;-72
2023/04/06 06:11:13;;;;;;;10.02;5.30;;;;;;;1.92;91.09;101075.66;5178365;28;20025;-71
2023/04/06 06:13:43;;;;;;;8.10;4.70;;;;;;;2.14;90.57;101082.72;5181118;28;20060;-71
2023/04/06 06:16:13;;;;;;;10.32;4.60;;;;;;;2.12;90.25;101074.09;5178994;28;20187;-71
2023/04/06 06:18:44;;;;;;;7.90;4.88;;;;;;;2.34;89.76;101075.94;5178204;28;20104;-71
2023/04/06 06:21:16;;;;;;;9.25;4.78;;;;;;;2.47;90.23;101072.59;5178059;28;20532;-71
2023/04/06 06:23:49;;;;;;;7.88;5.10;;;;;;;2.50;90.29;101073.44;5178256;28;20026;-71
2023/04/06 06:26:20;;;;;;;9.57;5.38;;;;;;;2.62;90.00;101073.50;5178490;28;20033;-71
2023/04/06 06:28:50;;;;;;;13.25;5.35;;;;;;;2.77;90.51;101065.84;5175624;28;20116;-71
2023/04/06 06:31:22;;;;;;;9.00;4.97;;;;;;;2.89;90.00;101077.91;5157421;28;20334;-71
2023/04/06 06:33:52;;;;;;;7.88;5.20;;;;;;;3.08;91.21;101065.06;5173922;28;20049;-70
2023/04/06 06:36:23;;;;;;;9.05;4.82;;;;;;;3.14;90.87;101059.03;5200976;22;20480;-71
2023/04/06 06:38:53;;;;;;;11.48;5.38;;;;;;;3.25;90.50;101071.13;5164576;28;20049;-71
2023/04/06 06:41:25;;;;;;;6.20;4.35;;;;;;;3.35;91.41;101069.41;5166195;28;20100;-72
2023/04/06 06:43:56;;;;;;;8.15;4.78;;;;;;;3.58;90.66;101063.41;5146619;28;20531;-71
2023/04/06 06:46:26;;;;;;;7.90;4.93;;;;;;;3.77;90.51;101062.53;5167890;28;20109;-72
2023/04/06 06:48:58;;;;;;;8.27;5.32;;;;;;;3.90;90.48;101066.81;5166090;28;20253;-72
2023/04/06 06:51:28;;;;;;;10.48;4.65;;;;;;;4.09;89.60;101059.03;5166979;28;20026;-71
2023/04/06 06:53:59;;;;;;;9.40;5.43;;;;;;;4.25;89.04;101065.91;5165961;28;20084;-72
2023/04/06 06:56:29;;;;;;;7.28;4.63;;;;;;;4.46;87.83;101071.00;5171235;28;20109;-72
2023/04/06 06:58:59;;;;;;;9.57;4.72;;;;;;;4.69;86.41;101066.63;5167950;28;20137;-71
2023/04/06 07:01:32;;;;;;;8.52;4.90;;;;;;;5.36;85.39;101065.38;5150321;28;20034;-72
2023/04/06 07:04:02;;;;;;;6.78;4.20;;;;;;;7.88;75.89;101051.06;5166776;28;20028;-72
2023/04/06 07:06:32;;;;;;;5.47;3.47;;;;;;;9.72;66.76;101038.50;5154793;28;20093;-73
2023/04/06 07:09:03;;;;;;;5.60;3.30;;;;;;;10.90;64.40;101037.03;5148683;28;20026;-72
2023/04/06 07:11:33;;;;;;;6.55;3.35;;;;;;;11.66;60.97;101032.88;5169908;28;20030;-74
2023/04/06 07:14:04;;;;;;;4.10;3.00;;;;;;;12.57;59.41;101033.16;5167162;28;20369;-72
2023/04/06 07:16:34;;;;;;;6.70;3.35;;;;;;;12.88;58.21;101035.47;5148744;28;20030;-72
2023/04/06 07:19:05;;;;;;;4.85;3.22;;;;;;;13.06;57.49;101039.22;5166535;28;20077;-72
2023/04/06 07:21:35;;;;;;;4.97;3.28;;;;;;;13.87;55.04;101031.50;5167909;28;20030;-72
2023/04/06 07:24:06;;;;;;;5.53;3.00;;;;;;;14.43;54.21;101021.22;5164642;28;20473;-73
2023/04/06 07:26:36;;;;;;;5.75;2.97;;;;;;;14.18;53.97;101021.44;5172730;28;20041;-73
2023/04/06 07:29:06;;;;;;;4.85;3.17;;;;;;;13.71;nan;101035.69;5166738;28;21785;-72
2023/04/06 07:31:37;;;;;;;6.22;3.33;;;;;;;14.55;52.61;101024.16;5164827;28;20202;-72
2023/04/06 07:34:07;;;;;;;4.72;3.03;;;;;;;14.78;53.34;101021.34;5166527;28;20026;-72
2023/04/06 07:36:38;;;;;;;4.40;2.85;;;;;;;14.72;53.63;101024.25;5152106;28;20038;-73
2023/04/06 07:39:08;;;;;;;6.10;3.22;;;;;;;14.45;51.96;101012.31;5167289;28;20222;-72
2023/04/06 07:41:39;;;;;;;4.05;2.92;;;;;;;15.06;50.00;101017.38;5164581;28;20187;-73
2023/04/06 07:44:09;;;;;;;4.90;3.15;;;;;;;15.73;51.24;101013.22;5164877;28;20030;-72
2023/04/06 07:46:40;;;;;;;5.22;3.20;;;;;;;15.48;50.50;101007.47;5147433;28;20045;-72
2023/04/06 07:49:10;;;;;;;3.92;2.70;;;;;;;15.83;49.22;101011.84;5168089;28;20080;-72
2023/04/06 07:51:41;;;;;;;5.80;3.03;;;;;;;16.01;46.64;101010.91;5149109;28;20026;-74
2023/04/06 07:54:12;;;;;;;9.48;3.00;;;;;;;15.29;47.43;101017.19;5169710;28;20030;-72
2023/04/06 07:56:42;;;;;;;4.55;3.08;;;;;;;15.67;48.55;101012.69;5156843;28;20030;-71
2023/04/06 07:59:13;;;;;;;5.38;3.28;;;;;;;15.21;49.31;101014.00;5165490;28;20050;-72
2023/04/06 08:01:44;;;;;;;5.32;2.80;;;;;;;16.49;48.21;101011.06;5162669;28;20022;-72
2023/04/06 08:04:14;;;;;;;4.63;2.92;;;;;;;16.18;48.70;101008.28;5163587;28;20029;-72
2023/04/06 08:06:44;;;;;;;5.22;3.28;;;;;;;16.41;47.38;101004.47;5165485;28;20026;-71
2023/04/06 08:09:15;;;;;;;4.97;2.88;;;;;;;16.10;47.53;101007.81;5165098;28;20037;-72
2023/04/06 08:11:47;;;;;;;4.88;3.17;;;;;;;15.98;48.36;101020.75;5146915;28;20504;-72
2023/04/06 08:14:17;;;;;;;6.68;3.33;;;;;;;15.85;47.47;101009.97;5148994;28;20024;-71
2023/04/06 08:16:48;;;;;;;5.38;3.10;;;;;;;15.74;47.25;101006.19;5162792;28;20101;-71
2023/04/06 08:19:18;;;;;;;7.75;3.50;;;;;;;16.50;48.52;101006.63;5165685;28;20443;-72
2023/04/06 08:21:49;;;;;;;4.97;3.03;;;;;;;16.57;47.39;101000.94;5131179;28;20030;-71
2023/04/06 08:24:19;;;;;;;5.20;3.00;;;;;;;16.39;46.15;101009.00;5171265;28;20025;-70
2023/04/06 08:26:51;;;;;;;6.32;3.25;;;;;;;15.95;47.30;101005.09;5168805;28;20037;-73
2023/04/06 08:29:21;;;;;;;5.30;3.17;;;;;;;16.43;46.90;101007.88;5165446;28;20030;-71
2023/04/06 08:31:51;;;;;;;5.88;3.35;;;;;;;16.31;46.55;100997.94;5165525;28;20080;-72
2023/04/06 08:34:22;;;;;;;5.22;3.47;;;;;;;17.38;46.31;100997.31;5166686;28;20038;-73
2023/04/06 08:36:53;;;;;;;6.03;3.33;;;;;;;16.70;45.26;101009.91;5167593;28;20419;-74
2023/04/06 08:39:25;;;;;;;6.18;3.38;;;;;;;16.78;43.67;101002.44;5165819;28;20033;-72
2023/04/06 08:41:59;;;;;;;4.45;3.03;;;;;;;16.87;45.54;100992.25;5164873;28;20420;-74
2023/04/06 08:44:32;;;;;;;7.07;3.25;;;;;;;17.21;44.72;100991.22;5164747;28;20071;-72
2023/04/06 08:47:04;;;;;;;6.97;3.83;;;;;;;16.10;44.34;101013.09;5162805;28;20025;-72
2023/04/06 08:49:37;;;;;;;5.30;3.45;;;;;;;16.52;46.53;101005.63;5162909;28;20035;-72
2023/04/06 08:52:08;;;;;;;7.10;3.53;;;;;;;16.48;46.04;101003.22;5148719;28;20041;-72
2023/04/06 08:54:38;;;;;;;5.40;3.17;;;;;;;16.53;43.75;100999.41;5145498;28;20396;-72
2023/04/06 08:57:10;;;;;;;5.25;3.00;;;;;;;15.71;45.50;101008.97;5168809;28;20487;-72
2023/04/06 08:59:41;;;;;;;5.15;3.40;;;;;;;15.15;47.29;101009.03;5150814;28;20376;-73
2023/04/06 09:02:17;;;;;;;4.93;3.08;;;;;;;16.35;46.93;101010.94;5166153;28;20022;-72
2023/04/06 09:04:53;;;;;;;5.00;3.42;;;;;;;16.35;45.62;101003.00;5148815;28;20026;-71
2023/04/06 09:07:24;;;;;;;5.68;3.78;;;;;;;16.74;45.61;101006.16;5168305;28;20084;-72
2023/04/06 09:09:54;;;;;;;6.47;3.40;;;;;;;17.34;46.38;101008.13;5165113;28;20026;-72
2023/04/06 09:12:29;;;;;;;6.68;3.15;;;;;;;17.17;45.10;101002.91;5148960;28;20053;-71
2023/04/06 09:15:00;;;;;;;5.72;3.53;;;;;;;16.11;45.26;101009.53;5166773;28;20377;-72
2023/04/06 09:17:33;;;;;;;5.97;3.58;;;;;;;16.01;45.91;101010.91;5145982;28;20072;-73
2023/04/06 09:20:04;;;;;;;6.25;3.40;;;;;;;16.46;46.99;101011.22;5148659;28;20033;-72
2023/04/06 09:22:36;;;;;;;6.18;3.80;;;;;;;16.44;48.17;101006.94;5165695;28;20121;-72
2023/04/06 09:25:08;;;;;;;5.82;3.50;;;;;;;16.63;46.09;101000.63;5167788;28;20031;-72
2023/04/06 09:27:39;;;;;;;8.48;3.65;;;;;;;15.18;46.67;101008.88;5165024;28;20049;-72
2023/04/06 09:30:13;;;;;;;6.63;3.55;;;;;;;14.07;46.74;101010.47;5164567;28;20766;-73
2023/04/06 09:32:48;;;;;;;6.90;3.88;;;;;;;13.39;50.33;101004.59;5163905;28;20396;-73
2023/04/06 09:35:20;;;;;;;8.52;3.75;;;;;;;13.14;50.19;101006.50;5166964;28;20178;-72
2023/04/06 09:37:51;;;;;;;6.25;3.58;;;;;;;12.74;53.74;101010.69;5165809;28;20377;-71
2023/04/06 09:40:22;;;;;;;7.07;4.15;;;;;;;12.23;53.82;101009.94;5164341;28;20098;-72
2023/04/06 09:42:54;;;;;;;9.07;4.05;;;;;;;12.83;52.94;101010.31;5148667;28;20034;-71
2023/04/06 09:45:25;;;;;;;5.93;3.67;;;;;;;12.70;53.09;101010.84;5169051;28;20101;-72
2023/04/06 09:47:56;;;;;;;7.25;3.88;;;;;;;13.00;52.48;100997.44;5167439;28;20121;-71
2023/04/06 09:50:27;;;;;;;6.22;3.50;;;;;;;12.95;51.95;100999.41;5168019;28;20112;-72
2023/04/06 09:52:59;;;;;;;9.27;3.88;;;;;;;12.78;53.46;100986.03;5168724;28;20500;-71
2023/04/06 09:55:39;;;;;;;9.38;3.97;;;;;;;12.94;53.23;100992.44;5169424;28;20103;-73
2023/04/06 09:58:15;;;;;;;8.63;3.92;;;;;;;12.78;52.20;100983.41;5151124;28;20029;-72
2023/04/06 10:00:59;;;;;;;4.97;3.47;;;;;;;13.01;53.79;100988.66;5165591;28;20061;-70
2023/04/06 10:03:37;;;;;;;10.55;3.90;;;;;;;13.06;51.55;100986.72;5169381;28;20391;-70
2023/04/06 10:06:13;;;;;;;7.35;3.92;;;;;;;12.81;52.25;100990.31;5169161;28;20116;-72
2023/04/06 10:08:47;;;;;;;7.68;4.05;;;;;;;12.88;53.04;100986.53;5163336;28;20129;-72
2023/04/06 10:11:18;;;;;;;9.05;3.78;;;;;;;13.01;53.98;100988.66;5168017;28;20030;-72
2023/04/06 10:13:50;;;;;;;12.48;4.30;;;;;;;12.46;50.56;100985.53;5166971;28;20023;-70
2023/04/06 10:16:21;;;;;;;8.35;4.15;;;;;;;12.66;51.12;100988.28;5169747;28;20386;-69
2023/04/06 10:19:01;;;;;;;8.27;4.25;;;;;;;12.70;52.98;100982.88;5166568;28;20109;-71
2023/04/06 10:21:34;;;;;;;9.60;4.00;;;;;;;12.12;52.66;100988.50;5167129;28;20085;-72
2023/04/06 10:24:10;;;;;;;7.45;3.90;;;;;;;12.28;52.55;100979.19;5168290;28;20365;-72
2023/04/06 10:26:41;;;;;;;6.97;3.70;;;;;;;11.75;51.88;100982.81;5172757;28;20061;-72
2023/04/06 10:29:11;;;;;;;8.23;4.07;;;;;;;11.66;54.39;100982.28;5168453;28;20029;-73
2023/04/06 10:31:43;;;;;;;7.20;4.07;;;;;;;11.67;53.90;100990.09;5167167;28;20030;-72
2023/04/06 10:34:14;;;;;;;7.35;4.20;;;;;;;11.53;53.78;100976.56;5168961;28;20104;-72
2023/04/06 10:36:44;;;;;;;8.32;4.05;;;;;;;11.53;53.50;100976.56;5170671;28;20022;-73
2023/04/06 10:39:25;;;;;;;8.50;3.75;;;;;;;11.86;53.22;100977.22;5166848;28;20510;-72
2023/04/06 10:42:06;;;;;;;7.50;3.72;;;;;;;11.92;52.61;100970.00;5166112;28;20033;-72
2023/04/06 10:44:43;;;;;;;7.30;3.97;;;;;;;12.20;52.03;100965.50;5149857;28;20436;-71
2023/04/06 10:47:17;;;;;;;8.77;3.83;;;;;;;11.95;52.11;100963.81;5167953;28;20135;-70
2023/04/06 10:49:48;;;;;;;7.18;3.80;;;;;;;12.15;51.84;100967.41;5166010;28;20026;-70
2023/04/06 10:52:18;;;;;;;9.20;4.28;;;;;;;12.15;52.67;100970.03;5168132;28;20392;-72
2023/04/06 10:54:50;;;;;;;7.53;4.00;;;;;;;12.33;54.02;100958.88;5169208;28;20072;-71
2023/04/06 10:57:29;;;;;;;8.75;4.22;;;;;;;12.19;54.21;100953.31;5153164;28;20041;-73
2023/04/06 10:59:59;;;;;;;6.53;3.92;;;;;;;12.58;55.50;100954.47;5162917;28;20041;-73
2023/04/06 11:02:30;;;;;;;8.20;4.20;;;;;;;12.72;51.23;100949.56;5152817;28;20030;-72
2023/04/06 11:05:00;;;;;;;8.38;4.43;;;;;;;12.86;51.32;100939.41;5168028;28;20034;-71
2023/04/06 11:07:30;;;;;;;9.45;4.25;;;;;;;12.12;50.04;100946.56;5154640;28;20038;-72
2023/04/06 11:10:01;;;;;;;8.32;4.07;;;;;;;12.19;51.12;100949.84;5164255;28;20468;-72
2023/04/06 11:12:31;;;;;;;8.63;3.97;;;;;;;11.83;51.17;100957.25;5152882;28;20454;-72
2023/04/06 11:15:06;;;;;;;7.28;4.00;;;;;;;11.84;52.99;100944.97;5151413;28;20508;-73
2023/04/06 11:17:37;;;;;;;8.80;4.10;;;;;;;12.24;53.56;100940.91;5168850;28;20026;-72
2023/04/06 11:20:11;;;;;;;6.47;3.75;;;;;;;12.25;51.26;100942.59;5165469;28;21488;-72
2023/04/06 11:22:49;;;;;;;9.73;4.45;;;;;;;12.38;50.64;100951.75;5164643;28;20034;-72
2023/04/06 11:25:20;;;;;;;7.15;4.10;;;;;;;12.25;51.42;100947.84;5171356;28;20036;-72
2023/04/06 11:27:50;;;;;;;7.18;3.85;;;;;;;12.28;53.76;100949.50;5151088;28;20026;-72
2023/04/06 11:30:21;;;;;;;8.25;4.10;;;;;;;12.30;53.18;100945.91;5165308;28;20058;-72
2023/04/06 11:32:51;;;;;;;7.93;4.05;;;;;;;12.59;52.18;100935.19;5150273;28;20021;-73
2023/04/06 11:35:24;;;;;;;7.88;4.20;;;;;;;12.82;56.83;100932.53;5168201;28;20342;-72
2023/04/06 11:37:55;;;;;;;6.30;3.67;;;;;;;13.00;53.29;100927.47;5168397;28;20491;-72
2023/04/06 11:40:27;;;;;;;5.68;3.50;;;;;;;12.91;51.16;100933.03;5172280;28;20034;-73
2023/04/06 11:42:58;;;;;;;7.95;4.05;;;;;;;12.55;53.65;100925.75;5146241;28;20534;-72
2023/04/06 11:45:40;;;;;;;6.03;3.88;;;;;;;12.76;52.39;100929.28;5168066;28;20042;-72
2023/04/06 11:48:19;;;;;;;7.78;3.95;;;;;;;12.85;51.49;100919.28;5168339;28;20506;-72